• Join FlightAware (Why Join?)
  • Login
  • US Flag 
05:18PM EST


 

Airport Tracker/Info


-or-


 

Live Flight TrackerFlight Track Log ✈ C-GCRO ✈ 27-Apr-2013 ✈ KHTS - CNS7

Flight Track Log - Related Links

Times and Time Zones

All times are in EDT time to prevent confusion due to time zone crossing. See the C-GCRO flight status page for this flight to view local times or setup timezone preferences in your user account.

Time Position Orientation Groundspeed Altitude Reporting Facility
EDT Latitude Longitude Course Direction KTS MPH feet Rate Location/Type
11:25AM 38.5717 -82.9328 North 115 132 5,500  Level Indianapolis Center
11:26AM 38.6028 -82.9314 North 112 129 5,600  Climbing Indianapolis Center
11:27AM 38.6344 -82.9272 North 113 130 5,600 -60 Level Indianapolis Center
11:28AM 38.6614 -82.9219 North 109 125 5,500  Descending Indianapolis Center
11:29AM 38.6922 -82.9197 North 110 127 5,600  Climbing Indianapolis Center
11:30AM 38.7233 -82.9203 359° North 112 129 5,600  Level Indianapolis Center
11:31AM 38.7603 -82.9275 351° North 113 130 5,600  Level Indianapolis Center
11:32AM 38.7908 -82.9239 North 110 127 5,600 -60 Level Indianapolis Center
11:33AM 38.8228 -82.9175 North 115 132 5,500  Descending Indianapolis Center
11:34AM 38.8536 -82.9100 11° North 113 130 5,600  Climbing Indianapolis Center
11:35AM 38.8836 -82.9017 12° North 110 127 5,500 -60 Descending Indianapolis Center
11:36AM 38.9139 -82.8900 17° North 112 129 5,500  Level Indianapolis Center
11:37AM 38.9447 -82.8847 North 111 128 5,600  Climbing Indianapolis Center
11:38AM 38.9761 -82.8828 North 113 130 5,600  Level Indianapolis Center
11:39AM 39.0069 -82.8858 356° North 111 128 5,600 -60 Level Indianapolis Center
11:40AM 39.0397 -82.8850 North 116 133 5,500 -120 Descending Indianapolis Center
11:41AM 39.0772 -82.8769 North 113 130 5,400  Descending Indianapolis Center
11:42AM 39.1078 -82.8706 North 112 129 5,500  Climbing Indianapolis Center
11:43AM 39.1394 -82.8636 10° North 114 131 5,500  Level Indianapolis Center
11:44AM 39.1703 -82.8550 12° North 113 130 5,600  Climbing Indianapolis Center
11:45AM 39.2025 -82.8536 North 115 132 5,600  Level Indianapolis Center
11:46AM 39.2344 -82.8528 North 114 131 5,700  Climbing Indianapolis Center
11:47AM 39.2678 -82.8531 360° North 117 135 5,700 -60 Level Indianapolis Center
11:48AM 39.3006 -82.8517 North 117 135 5,600 -180 Descending Indianapolis Center
11:49AM 39.3158 -82.8517 360° North 116 133 5,500  Descending Indianapolis Center
11:49AM 39.3328 -82.8481 North 116 133 5,600 60 Climbing Indianapolis Center
11:50AM 39.3647 -82.8397 11° North 115 132 5,600  Level Indianapolis Center
11:51AM 39.3956 -82.8258 19° North 115 132 5,600  Level Indianapolis Center
11:52AM 39.4333 -82.8214 North 116 133 5,600  Level Indianapolis Center
11:53AM 39.4433 -82.8228 354° North 115 132 5,600 -240 Level Indianapolis Center
11:53AM 39.4664 -82.8225 North 117 135 5,400  Descending Indianapolis Center
11:54AM 39.4992 -82.8186 North 117 135 5,700 120 Climbing Indianapolis Center
11:55AM 39.5083 -82.8192 357° North 114 131 5,600  Descending Indianapolis Center
11:55AM 39.5306 -82.8231 352° North 114 131 5,700  Climbing Indianapolis Center
11:57AM 39.5764 -82.8375 346° North 125 144 5,600 -60 Descending Indianapolis Center
11:57AM 39.5981 -82.8342 North 120 138 5,600 -120 Level Indianapolis Center
11:58AM 39.6081 -82.8331 North 120 138 5,500  Descending Indianapolis Center
11:58AM 39.6303 -82.8269 12° North 117 135 5,600 60 Climbing Indianapolis Center
11:59AM 39.6419 -82.8261 North 120 138 5,600  Level Indianapolis Center
11:59AM 39.6639 -82.8200 12° North 119 137 5,600 -120 Level Indianapolis Center
12:00PM 39.6739 -82.8186 North 118 136 5,500 -120 Descending Indianapolis Center
12:01PM 39.7036 -82.8111 11° North 118 136 5,500  Level Indianapolis Center
12:02PM 39.7281 -82.8019 16° North 117 135 5,600  Climbing Indianapolis Center
12:03PM 39.7608 -82.7933 11° North 118 136 5,500 -60 Descending Indianapolis Center
12:04PM 39.7944 -82.7875 North 120 138 5,500  Level Indianapolis Center
12:05PM 39.8331 -82.7850 North 120 138 5,500  Level Indianapolis Center
12:06PM 39.8603 -82.7769 13° North 119 137 5,500  Level Indianapolis Center
12:07PM 39.8947 -82.7703 North 116 133 5,500  Level Indianapolis Center
12:08PM 39.9283 -82.7686 North 117 135 5,600  Climbing Indianapolis Center
12:08PM 39.9597 -82.7694 359° North 123 142 5,500 -60 Descending Indianapolis Center
12:09PM 39.9928 -82.7731 355° North 123 142 5,500  Level Indianapolis Center
12:10PM 40.0283 -82.7742 359° North 125 144 5,600  Climbing Indianapolis Center
12:11PM 40.0636 -82.7783 355° North 123 142 5,600 -60 Level Indianapolis Center
12:13PM 40.0994 -82.7742 North 123 142 5,500  Descending Indianapolis Center
12:14PM 40.1350 -82.7753 359° North 123 142 5,700  Climbing Indianapolis Center
12:15PM 40.1725 -82.7794 355° North 124 143 5,600 -60 Descending Indianapolis Center
12:16PM 40.2083 -82.7753 North 122 140 5,600  Level Indianapolis Center
12:17PM 40.2425 -82.7706 North 121 139 5,600  Level Indianapolis Center
12:18PM 40.2811 -82.7661 North 121 139 5,600 -60 Level Indianapolis Center
12:19PM 40.3178 -82.7658 360° North 127 146 5,500 -60 Descending Indianapolis Center
12:20PM 40.3511 -82.7567 12° North 124 143 5,500  Level Indianapolis Center
12:21PM 40.3847 -82.7519 North 121 139 5,600  Climbing Indianapolis Center
12:22PM 40.4186 -82.7464 North 122 140 5,600  Level Indianapolis Center
12:23PM 40.4508 -82.7453 North 119 137 5,700  Climbing Indianapolis Center
12:24PM 40.4844 -82.7319 17° North 121 139 5,600 -120 Descending Indianapolis Center
12:25PM 40.5175 -82.7242 10° North 120 138 5,500  Descending Indianapolis Center
12:26PM 40.5508 -82.7258 358° North 119 137 5,600  Climbing Indianapolis Center
12:27PM 40.5853 -82.7297 355° North 121 139 5,500  Descending Indianapolis Center
12:28PM 40.6194 -82.7311 358° North 122 140 5,600  Climbing Indianapolis Center
12:29PM 40.6536 -82.7294 North 123 142 5,600  Level Indianapolis Center
12:30PM 40.6886 -82.7292 360° North 124 143 5,600  Level Indianapolis Center
12:31PM 40.7275 -82.7294 360° North 121 139 5,600  Level Indianapolis Center
12:32PM 40.7619 -82.7303 359° North 122 140 5,600  Level Indianapolis Center
12:33PM 40.7964 -82.7311 359° North 123 142 5,700  Climbing Indianapolis Center
12:34PM 40.8303 -82.7297 North 122 140 5,600  Descending Indianapolis Center
12:35PM 40.8644 -82.7272 North 121 139 5,700  Climbing Indianapolis Center
12:36PM 40.8972 -82.7242 North 119 137 5,700 -60 Level Indianapolis Center
12:37PM 40.9319 -82.7233 North 122 140 5,600  Descending Indianapolis Center
12:38PM 40.9658 -82.7250 358° North 122 140 5,700  Climbing Indianapolis Center
12:39PM 41.0000 -82.7286 355° North 122 140 5,700  Level Indianapolis Center
12:40PM 41.0342 -82.7317 356° North 123 142 5,700  Level Indianapolis Center
12:41PM 41.0675 -82.7358 355° North 121 139 5,700 -60 Level Indianapolis Center
12:42PM 41.1017 -82.7400 355° North 121 139 5,600  Descending Indianapolis Center
12:43PM 41.1356 -82.7400 360° North 121 139 5,700  Climbing Indianapolis Center
12:44PM 41.1750 -82.7358 North 121 139 5,700  Level Indianapolis Center
12:45PM 41.1872 -82.7381 352° North 119 137 5,700 -60 Level Cleveland Center
12:46PM 41.2331 -82.7367 North 120 138 5,600  Descending Cleveland Center
12:47PM 41.2642 -82.7350 North 120 138 5,700  Climbing Cleveland Center
12:48PM 41.2914 -82.7358 359° North 120 138 5,600 -60 Descending Cleveland Center
12:49PM 41.3206 -82.7314 North 120 138 5,600  Level Cleveland Center
12:50PM 41.3539 -82.7353 355° North 119 137 5,700  Climbing Cleveland Center
12:51PM 41.3894 -82.7364 359° North 121 139 5,600 -60 Descending Cleveland Center
12:52PM 41.4228 -82.7292 North 121 139 5,600  Level Cleveland Center
12:53PM 41.4519 -82.7275 North 121 139 5,600  Level Cleveland Center
12:54PM 41.4897 -82.7203 North 116 133 5,700  Climbing Cleveland Center
12:55PM 41.5211 -82.7131 10° North 117 135 5,600  Descending Cleveland Center
12:56PM 41.5525 -82.7058 10° North 119 137 5,700  Climbing Cleveland Center
12:57PM 41.5839 -82.6986 10° North 120 138 5,600 -60 Descending Cleveland Center
12:58PM 41.6153 -82.6911 10° North 117 135 5,600  Level Cleveland Center
12:59PM 41.6550 -82.6842 North 118 136 5,700  Climbing Cleveland Center
01:00PM 41.6825 -82.6739 16° North 116 133 5,700 -60 Level Cleveland Center
01:01PM 41.7139 -82.6611 17° North 121 139 5,600 -60 Descending Cleveland Center
01:02PM 41.7453 -82.6508 14° North 132 152 5,600  Level Cleveland Center
01:03PM 41.7872 -82.6356 15° North 118 136 5,600  Level Cleveland Center
01:04PM 41.8186 -82.6283 10° North 118 136 5,600 -60 Level Cleveland Center
01:05PM 41.8503 -82.6153 17° North 118 136 5,500 -60 Descending Cleveland Center
01:06PM 41.8817 -82.5994 21° North 118 136 5,500  Level Cleveland Center
01:07PM 41.9111 -82.5839 21° North 113 130 5,500  Level Cleveland Center
01:08PM 41.9428 -82.5653 24° Northeast 113 130 5,500  Level Cleveland Center
01:09PM 41.9703 -82.5464 27° Northeast 113 130 5,600  Climbing Cleveland Center
01:10PM 41.9997 -82.5278 25° Northeast 113 130 5,500  Descending Cleveland Center
01:11PM 42.0314 -82.5119 20° North 113 130 5,600  Climbing Cleveland Center
01:12PM 42.0628 -82.4989 17° North 113 130 5,500 -60 Descending Cleveland Center
01:13PM 42.0944 -82.4803 24° Northeast 113 130 5,500  Level Cleveland Center
01:14PM 42.1236 -82.4728 11° North 113 130 5,500  Level Cleveland Center
01:15PM 42.1572 -82.4569 19° North 113 130 5,500  Level Cleveland Center
01:16PM 42.1886 -82.4467 14° North 108 124 5,500  Level Cleveland Center
01:17PM 42.2222 -82.4308 19° North 108 124 5,600  Climbing Cleveland Center
01:18PM 42.2517 -82.4178 18° North 108 124 5,600  Level Cleveland Center
01:19PM 42.2811 -82.4017 22° Northeast 108 124 5,600  Level Cleveland Center
01:20PM 42.3128 -82.3831 23° Northeast 108 124 5,600 -60 Level Cleveland Center
01:21PM 42.3461 -82.3728 13° North 113 130 5,500  Descending Cleveland Center
01:22PM 42.3797 -82.3625 13° North 113 130 5,600  Climbing Cleveland Center
01:23PM 42.4133 -82.3522 13° North 113 130 5,600  Level Cleveland Center
01:24PM 42.4467 -82.3475 North 118 136 5,600  Level Cleveland Center
01:25PM 42.4822 -82.3372 12° North 124 143 5,600  Level Cleveland Center
01:26PM 42.5136 -82.3267 14° North 124 143 5,600  Level Cleveland Center
01:27PM 42.5472 -82.3164 13° North 124 143 5,600  Level Cleveland Center
01:28PM 42.5847 -82.3175 359° North 124 143 5,600 -60 Level Cleveland Center
01:29PM 42.6181 -82.3128 North 124 143 5,500 -60 Descending Cleveland Center
01:30PM 42.6517 -82.3053 North 124 143 5,500  Level Cleveland Center
01:31PM 42.6872 -82.2919 15° North 124 143 5,500  Level Cleveland Center
01:32PM 42.7206 -82.2817 13° North 124 143 5,600  Climbing Cleveland Center
01:33PM 42.7522 -82.2628 24° Northeast 124 143 5,600  Level Cleveland Center
01:35PM 42.7849 -82.2175 46° Northeast  Level FlightAware Approximate
01:42PM 43.0303 -82.0724 16° North  Level FlightAware Approximate
01:43PM 43.0661 -82.0583 16° North  Level FlightAware Approximate
01:44PM 43.1019 -82.0441 16° North  Level FlightAware Approximate
01:45PM 43.1377 -82.0299 16° North  Level FlightAware Approximate
01:46PM 43.1735 -82.0157 16° North  Level FlightAware Approximate
01:47PM 43.2093 -82.0014 16° North  Level FlightAware Approximate
01:48PM 43.2451 -81.9872 16° North  Level FlightAware Approximate
01:49PM 43.2809 -81.9729 16° North  Level FlightAware Approximate
01:50PM 43.3167 -81.9586 16° North  Level FlightAware Approximate
01:51PM 43.3525 -81.9443 16° North  Level FlightAware Approximate
01:52PM 43.3883 -81.9300 16° North  Level FlightAware Approximate